createdAt,value
2023-05-08T00:01:20.419Z,7.82
2023-05-08T00:03:44.260Z,7.95
2023-05-08T00:06:08.792Z,8.32
2023-05-08T00:08:32.336Z,9.90
2023-05-08T00:10:57.377Z,8.32
2023-05-08T00:13:21.058Z,9.73
2023-05-08T00:15:44.887Z,8.98
2023-05-08T00:18:08.404Z,10.00
2023-05-08T00:20:32.851Z,11.25
2023-05-08T00:22:57.950Z,8.75
2023-05-08T00:25:21.568Z,9.25
2023-05-08T00:27:46.462Z,9.68
2023-05-08T00:30:11.708Z,9.55
2023-05-08T00:32:35.488Z,11.05
2023-05-08T00:34:59.213Z,10.85
2023-05-08T00:37:22.786Z,9.35
2023-05-08T00:39:46.373Z,10.30
2023-05-08T00:42:10.002Z,9.88
2023-05-08T00:44:35.155Z,11.60
2023-05-08T00:46:58.738Z,9.98
2023-05-08T00:49:23.602Z,10.57
2023-05-08T00:51:49.295Z,10.95
2023-05-08T00:54:13.609Z,8.73
2023-05-08T00:56:38.884Z,9.20
2023-05-08T00:59:02.718Z,10.13
2023-05-08T01:01:27.795Z,11.85
2023-05-08T01:03:51.850Z,10.63
2023-05-08T01:06:15.496Z,10.67
2023-05-08T01:08:39.239Z,10.40
2023-05-08T01:11:14.153Z,8.70
2023-05-08T01:13:57.522Z,8.85
2023-05-08T01:16:45.361Z,9.23
2023-05-08T01:20:07.077Z,9.77
2023-05-08T01:23:02.197Z,11.68
2023-05-08T01:26:19.516Z,11.55
2023-05-08T01:30:06.822Z,12.25
2023-05-08T01:32:36.653Z,9.38
2023-05-08T01:35:11.597Z,11.02
2023-05-08T01:37:42.516Z,11.70
2023-05-08T01:40:16.800Z,11.23
2023-05-08T01:42:49.586Z,9.70
2023-05-08T01:45:21.185Z,9.68
2023-05-08T01:47:52.402Z,10.32
2023-05-08T01:50:31.948Z,10.32
2023-05-08T01:53:04.901Z,11.85
2023-05-08T01:55:35.555Z,9.35
2023-05-08T01:58:01.126Z,9.45
2023-05-08T02:00:25.490Z,11.25
2023-05-08T02:02:52.695Z,13.60
2023-05-08T02:05:17.482Z,12.07
2023-05-08T02:07:45.702Z,10.63
2023-05-08T02:10:11.723Z,11.40
2023-05-08T02:12:38.509Z,11.87
2023-05-08T02:15:03.255Z,12.02
2023-05-08T02:17:27.802Z,11.00
2023-05-08T02:19:53.994Z,11.30
2023-05-08T02:22:18.362Z,9.75
2023-05-08T02:24:43.575Z,14.00
2023-05-08T02:27:08.201Z,10.98
2023-05-08T02:29:32.262Z,13.57
2023-05-08T02:31:57.236Z,12.97
2023-05-08T02:34:22.735Z,12.53
2023-05-08T02:36:49.038Z,12.05
2023-05-08T02:39:15.437Z,14.63
2023-05-08T02:41:42.053Z,15.02
2023-05-08T02:44:06.598Z,11.37
2023-05-08T02:46:40.184Z,14.52
2023-05-08T02:49:09.665Z,12.38
2023-05-08T02:51:48.548Z,12.05
2023-05-08T02:54:21.107Z,14.15
2023-05-08T02:56:57.405Z,16.15
2023-05-08T02:59:28.670Z,14.80
2023-05-08T03:02:01.014Z,11.43
2023-05-08T03:04:30.315Z,13.20
2023-05-08T03:06:56.926Z,13.03
2023-05-08T03:09:26.298Z,16.25
2023-05-08T03:12:00.438Z,12.65
2023-05-08T03:14:28.000Z,12.98
2023-05-08T03:16:54.718Z,13.90
2023-05-08T03:19:25.109Z,13.37
2023-05-08T03:21:50.766Z,12.33
2023-05-08T03:24:18.894Z,13.95
2023-05-08T03:26:44.908Z,12.97
2023-05-08T03:29:09.397Z,13.27
2023-05-08T03:31:34.518Z,13.80
2023-05-08T03:33:59.173Z,12.77
2023-05-08T03:36:25.028Z,14.00
2023-05-08T03:38:48.859Z,14.87
2023-05-08T03:41:13.069Z,14.67
2023-05-08T03:43:38.759Z,14.13
2023-05-08T03:46:02.994Z,13.53
2023-05-08T03:48:27.499Z,14.30
2023-05-08T03:50:52.346Z,13.23
2023-05-08T03:53:16.627Z,12.73
2023-05-08T03:55:41.502Z,12.77
2023-05-08T03:58:19.018Z,14.20
2023-05-08T04:01:04.647Z,13.57
2023-05-08T04:03:58.065Z,17.03
2023-05-08T04:06:35.713Z,13.63
2023-05-08T04:09:10.223Z,18.60
2023-05-08T04:11:43.560Z,13.90
2023-05-08T04:14:12.264Z,15.00
2023-05-08T04:16:42.288Z,14.67
2023-05-08T04:19:12.859Z,15.60
2023-05-08T04:21:38.336Z,15.17
2023-05-08T04:24:06.399Z,14.43
2023-05-08T04:26:31.314Z,12.83
2023-05-08T04:28:56.505Z,18.17
2023-05-08T04:31:21.407Z,13.07
2023-05-08T04:33:47.037Z,18.40
2023-05-08T04:36:13.476Z,16.90
2023-05-08T04:38:38.938Z,13.87
2023-05-08T04:41:03.242Z,14.30
2023-05-08T04:43:26.929Z,14.60
2023-05-08T04:45:50.538Z,14.77
2023-05-08T04:48:14.311Z,15.20
2023-05-08T04:50:39.681Z,16.90
2023-05-08T04:53:03.567Z,18.67
2023-05-08T04:55:27.248Z,15.27
2023-05-08T04:57:51.167Z,15.20
2023-05-08T05:00:16.537Z,16.80
2023-05-08T05:02:41.032Z,14.33
2023-05-08T05:05:05.900Z,14.20
2023-05-08T05:07:30.898Z,12.63
2023-05-08T05:09:54.525Z,12.15
2023-05-08T05:12:18.079Z,12.73
2023-05-08T05:14:42.271Z,14.55
2023-05-08T05:17:06.168Z,12.52
2023-05-08T05:19:30.001Z,12.60
2023-05-08T05:21:53.640Z,11.63
2023-05-08T05:24:18.957Z,11.65
2023-05-08T05:26:42.708Z,15.30
2023-05-08T05:29:06.470Z,12.70
2023-05-08T05:31:30.909Z,11.30
2023-05-08T05:33:54.742Z,11.95
2023-05-08T05:36:18.304Z,12.77
2023-05-08T05:38:42.228Z,14.52
2023-05-08T05:41:07.271Z,12.68
2023-05-08T05:43:30.980Z,12.50
2023-05-08T05:45:56.029Z,11.77
2023-05-08T05:48:20.757Z,12.15
2023-05-08T05:50:44.344Z,11.52
2023-05-08T05:53:08.233Z,9.77
2023-05-08T05:55:32.130Z,9.52
2023-05-08T05:57:57.291Z,9.43
2023-05-08T06:00:22.338Z,13.20
2023-05-08T06:02:50.219Z,5.88
2023-05-08T06:05:15.254Z,8.45
2023-05-08T06:07:39.781Z,8.25
2023-05-08T06:10:03.647Z,8.13
2023-05-08T06:12:28.357Z,8.90
2023-05-08T06:14:54.687Z,6.05
2023-05-08T06:17:18.912Z,8.73
2023-05-08T06:19:42.660Z,7.25
2023-05-08T06:22:06.402Z,7.47
2023-05-08T06:24:30.310Z,6.90
2023-05-08T06:26:53.859Z,8.27
2023-05-08T06:29:17.388Z,5.50
2023-05-08T06:31:42.386Z,7.47
2023-05-08T06:34:05.980Z,7.35
2023-05-08T06:36:29.601Z,7.65
2023-05-08T06:38:53.119Z,7.57
2023-05-08T06:41:16.731Z,5.60
2023-05-08T06:43:40.271Z,7.97
2023-05-08T06:46:04.073Z,5.68
2023-05-08T06:48:29.541Z,4.78
2023-05-08T06:50:53.225Z,6.60
2023-05-08T06:53:16.770Z,7.38
2023-05-08T06:55:40.319Z,4.90
2023-05-08T06:58:04.490Z,4.88
2023-05-08T07:00:28.426Z,6.38
2023-05-08T07:02:52.729Z,5.32
2023-05-08T07:05:18.276Z,6.55
2023-05-08T07:07:42.640Z,5.07
2023-05-08T07:10:07.999Z,7.45
2023-05-08T07:12:31.707Z,4.95
2023-05-08T07:15:40.879Z,4.50
2023-05-08T07:17:38.851Z,5.18
2023-05-08T07:20:02.408Z,7.60
2023-05-08T07:22:27.608Z,6.82
2023-05-08T07:24:51.155Z,4.47
2023-05-08T07:27:15.442Z,5.88
2023-05-08T07:29:41.175Z,7.18
2023-05-08T07:32:08.482Z,8.85
2023-05-08T07:34:34.465Z,7.00
2023-05-08T07:36:58.164Z,8.27
2023-05-08T07:39:23.070Z,8.68
2023-05-08T07:41:49.621Z,4.82
2023-05-08T07:44:13.617Z,7.18
2023-05-08T07:46:37.565Z,4.60
2023-05-08T07:49:01.312Z,4.15
2023-05-08T07:51:24.948Z,7.72
2023-05-08T07:53:48.791Z,6.53
2023-05-08T07:56:13.790Z,6.05
2023-05-08T07:58:37.342Z,4.88
2023-05-08T08:01:01.968Z,7.07
2023-05-08T08:03:25.744Z,4.80
2023-05-08T08:05:49.468Z,8.65
2023-05-08T08:08:13.054Z,6.63
2023-05-08T08:10:36.669Z,5.90
2023-05-08T08:13:02.018Z,5.97
2023-05-08T08:15:25.662Z,4.50
2023-05-08T08:17:49.275Z,6.13
2023-05-08T08:20:13.693Z,5.22
2023-05-08T08:22:39.497Z,4.28
2023-05-08T08:25:03.231Z,4.75
2023-05-08T08:27:26.802Z,6.00
2023-05-08T08:29:58.531Z,6.35
2023-05-08T08:32:25.057Z,3.97
2023-05-08T08:34:48.646Z,4.93
2023-05-08T08:37:14.950Z,4.93
2023-05-08T08:39:38.510Z,6.03
2023-05-08T08:42:02.294Z,6.63
2023-05-08T08:44:25.823Z,4.28
2023-05-08T08:46:53.388Z,3.17
2023-05-08T08:49:20.630Z,5.53
2023-05-08T08:51:50.134Z,3.65
2023-05-08T08:54:15.205Z,5.82
2023-05-08T08:56:42.785Z,4.78
2023-05-08T08:59:07.628Z,5.80
2023-05-08T09:01:36.214Z,5.88
2023-05-08T09:04:02.334Z,7.47
2023-05-08T09:06:27.769Z,3.50
2023-05-08T09:08:53.476Z,3.58
2023-05-08T09:11:17.130Z,3.83
2023-05-08T09:13:40.873Z,5.32
2023-05-08T09:16:04.927Z,6.80
2023-05-08T09:18:28.536Z,4.55
2023-05-08T09:20:54.389Z,7.97
2023-05-08T09:23:18.699Z,3.55
2023-05-08T09:25:46.824Z,4.95
2023-05-08T09:28:21.542Z,8.13
2023-05-08T09:30:52.209Z,4.07
2023-05-08T09:33:15.919Z,5.85
2023-05-08T09:35:39.729Z,9.57
2023-05-08T09:38:05.492Z,4.40
2023-05-08T09:40:29.133Z,3.58
2023-05-08T09:42:52.741Z,5.93
2023-05-08T09:45:29.303Z,5.75
2023-05-08T09:47:53.061Z,7.30
2023-05-08T09:50:16.918Z,4.72
2023-05-08T09:52:47.770Z,4.85
2023-05-08T09:55:13.954Z,5.40
2023-05-08T09:57:39.638Z,4.78
2023-05-08T10:00:06.723Z,4.68
2023-05-08T10:02:30.792Z,4.40
2023-05-08T10:04:54.425Z,3.92
2023-05-08T10:07:17.967Z,3.97
2023-05-08T10:09:50.161Z,5.00
2023-05-08T10:12:15.679Z,3.75
2023-05-08T10:14:39.469Z,4.85
2023-05-08T10:17:08.670Z,8.20
2023-05-08T10:19:32.395Z,2.80
2023-05-08T10:21:57.188Z,6.28
2023-05-08T10:24:22.430Z,6.18
2023-05-08T10:27:06.841Z,4.63
2023-05-08T10:29:39.464Z,3.80
2023-05-08T10:32:07.488Z,3.35
2023-05-08T10:34:33.875Z,4.55
2023-05-08T10:36:57.741Z,3.47
2023-05-08T10:39:21.997Z,2.60
2023-05-08T10:41:46.156Z,5.15
2023-05-08T10:44:11.423Z,4.20
2023-05-08T10:46:48.951Z,2.88
2023-05-08T10:49:21.492Z,4.10
2023-05-08T10:51:57.849Z,2.83
2023-05-08T10:54:35.435Z,4.18
2023-05-08T10:57:11.203Z,2.70
2023-05-08T10:59:37.137Z,3.60
2023-05-08T11:02:08.076Z,6.75
2023-05-08T11:04:31.935Z,5.10
2023-05-08T11:06:55.808Z,5.88
2023-05-08T11:09:24.371Z,5.95
2023-05-08T11:12:07.651Z,3.00
2023-05-08T11:14:32.856Z,3.05
2023-05-08T11:17:08.446Z,3.05
2023-05-08T11:19:32.335Z,5.07
2023-05-08T11:22:22.026Z,3.55
2023-05-08T11:24:55.982Z,2.83
2023-05-08T11:27:19.661Z,4.60
2023-05-08T11:29:44.914Z,5.65
2023-05-08T11:32:10.066Z,5.50
2023-05-08T11:34:49.965Z,4.25
2023-05-08T11:37:18.420Z,4.20
2023-05-08T11:39:42.075Z,6.45
2023-05-08T11:42:37.075Z,6.40
2023-05-08T11:45:07.725Z,4.32
2023-05-08T11:47:38.890Z,4.00
2023-05-08T11:50:03.510Z,2.50
2023-05-08T11:52:27.314Z,3.00
2023-05-08T11:54:50.981Z,6.85
2023-05-08T11:57:18.266Z,4.82
2023-05-08T11:59:43.674Z,6.18
2023-05-08T12:02:09.460Z,5.22
2023-05-08T12:04:45.891Z,3.85
2023-05-08T12:07:09.601Z,3.67
2023-05-08T12:09:33.203Z,6.30
2023-05-08T12:11:59.111Z,6.60
2023-05-08T12:14:24.969Z,2.97
2023-05-08T12:16:48.606Z,2.80
2023-05-08T12:19:14.644Z,4.10
2023-05-08T12:21:39.755Z,2.58
2023-05-08T12:24:07.257Z,2.67
2023-05-08T12:26:30.945Z,4.07
2023-05-08T12:28:57.847Z,4.45
2023-05-08T12:31:21.617Z,5.57
2023-05-08T12:33:45.561Z,4.05
2023-05-08T12:36:09.716Z,4.05
2023-05-08T12:38:34.766Z,2.58
2023-05-08T12:40:58.847Z,3.28
2023-05-08T12:43:22.617Z,2.45
2023-05-08T12:45:46.389Z,3.13
2023-05-08T12:48:12.337Z,2.67
2023-05-08T12:50:37.357Z,3.47
2023-05-08T12:53:05.369Z,6.32
2023-05-08T12:55:32.293Z,4.63
2023-05-08T12:58:05.522Z,5.60
2023-05-08T13:00:39.910Z,4.18
2023-05-08T13:03:03.821Z,6.15
2023-05-08T13:05:27.499Z,4.45
2023-05-08T13:07:51.330Z,2.72
2023-05-08T13:10:15.355Z,3.35
2023-05-08T13:12:40.629Z,6.75
2023-05-08T13:15:04.915Z,5.57
2023-05-08T13:17:28.685Z,4.88
2023-05-08T13:19:52.231Z,4.15
2023-05-08T13:22:15.909Z,5.13
2023-05-08T13:24:39.470Z,4.10
2023-05-08T13:27:03.159Z,3.03
2023-05-08T13:29:28.143Z,4.30
2023-05-08T13:31:51.910Z,6.97
2023-05-08T13:34:15.506Z,5.75
2023-05-08T13:36:39.138Z,6.25
2023-05-08T13:39:02.674Z,3.65
2023-05-08T13:41:26.340Z,4.90
2023-05-08T13:43:49.873Z,7.35
2023-05-08T13:46:15.098Z,4.82
2023-05-08T13:48:38.633Z,3.58
2023-05-08T13:51:02.261Z,2.58
2023-05-08T13:53:25.868Z,3.45
2023-05-08T13:55:49.771Z,2.10
2023-05-08T13:58:13.384Z,5.40
2023-05-08T14:00:37.116Z,3.25
2023-05-08T14:03:02.304Z,3.30
2023-05-08T14:05:25.952Z,2.92
2023-05-08T14:07:49.581Z,4.30
2023-05-08T14:10:13.351Z,6.75
2023-05-08T14:12:37.146Z,4.05
2023-05-08T14:15:00.793Z,4.80
2023-05-08T14:17:24.526Z,4.28
2023-05-08T14:19:49.748Z,4.03
2023-05-08T14:22:13.296Z,2.65
2023-05-08T14:24:36.990Z,2.47
2023-05-08T14:27:01.988Z,3.70
2023-05-08T14:29:25.614Z,4.03
2023-05-08T14:31:49.522Z,2.60
2023-05-08T14:34:13.347Z,6.53
2023-05-08T14:36:38.277Z,4.15
2023-05-08T14:39:01.947Z,2.63
2023-05-08T14:41:29.526Z,3.17
2023-05-08T14:43:53.205Z,3.90
2023-05-08T14:46:16.953Z,5.57
2023-05-08T14:48:40.555Z,3.53
2023-05-08T14:51:04.097Z,4.50
2023-05-08T14:53:29.329Z,8.48
2023-05-08T14:55:53.231Z,10.15
2023-05-08T14:58:17.027Z,4.82
2023-05-08T15:00:41.530Z,5.30
2023-05-08T15:03:05.349Z,3.60
2023-05-08T15:05:29.032Z,6.85
2023-05-08T15:07:53.207Z,6.20
2023-05-08T15:10:18.323Z,3.53
2023-05-08T15:12:42.009Z,5.97
2023-05-08T15:15:06.994Z,6.82
2023-05-08T15:17:30.613Z,5.25
2023-05-08T15:19:54.301Z,7.38
2023-05-08T15:22:18.120Z,6.68
2023-05-08T15:24:41.977Z,4.10
2023-05-08T15:27:07.279Z,4.72
2023-05-08T15:29:31.157Z,4.80
2023-05-08T15:31:54.877Z,3.38
2023-05-08T15:34:18.406Z,6.65
2023-05-08T15:36:41.970Z,6.50
2023-05-08T15:39:05.616Z,7.80
2023-05-08T15:41:29.335Z,4.72
2023-05-08T15:43:54.428Z,4.07
2023-05-08T15:46:18.183Z,9.88
2023-05-08T15:48:41.824Z,3.72
2023-05-08T15:51:05.777Z,3.47
2023-05-08T15:53:29.439Z,5.20
2023-05-08T15:55:54.052Z,3.22
2023-05-08T15:58:17.638Z,5.32
2023-05-08T16:00:45.113Z,4.13
2023-05-08T16:03:09.374Z,4.80
2023-05-08T16:05:33.074Z,4.57
2023-05-08T16:07:56.614Z,4.05
2023-05-08T16:10:20.439Z,7.88
2023-05-08T16:12:44.052Z,4.28
2023-05-08T16:15:08.740Z,5.20
2023-05-08T16:17:34.311Z,4.32
2023-05-08T16:19:57.986Z,6.93
2023-05-08T16:22:23.198Z,6.25
2023-05-08T16:24:46.817Z,8.85
2023-05-08T16:27:10.328Z,9.45
2023-05-08T16:29:33.910Z,7.05
2023-05-08T16:31:57.638Z,5.45
2023-05-08T16:34:22.934Z,4.05
2023-05-08T16:36:46.573Z,3.78
2023-05-08T16:39:11.629Z,6.28
2023-05-08T16:41:35.342Z,5.28
2023-05-08T16:43:58.943Z,4.70
2023-05-08T16:46:30.112Z,6.97
2023-05-08T16:48:54.204Z,5.35
2023-05-08T16:51:19.190Z,4.55
2023-05-08T16:53:43.000Z,7.63
2023-05-08T16:56:07.569Z,4.57
2023-05-08T16:58:31.800Z,8.77
2023-05-08T17:00:55.560Z,5.05
2023-05-08T17:03:19.316Z,5.50
2023-05-08T17:05:42.958Z,5.15
2023-05-08T17:08:08.235Z,4.68
2023-05-08T17:10:32.119Z,5.80
2023-05-08T17:12:55.806Z,6.20
2023-05-08T17:15:19.542Z,6.80
2023-05-08T17:17:43.375Z,4.50
2023-05-08T17:20:08.956Z,5.80
2023-05-08T17:22:32.596Z,4.32
2023-05-08T17:24:57.846Z,4.47
2023-05-08T17:27:21.432Z,5.45
2023-05-08T17:29:44.971Z,5.90
2023-05-08T17:32:08.686Z,5.57
2023-05-08T17:34:32.509Z,5.85
2023-05-08T17:36:56.177Z,6.95
2023-05-08T17:39:21.626Z,7.68
2023-05-08T17:41:46.715Z,3.78
2023-05-08T17:44:10.211Z,4.97
2023-05-08T17:46:34.137Z,6.15
2023-05-08T17:48:57.684Z,7.97
2023-05-08T17:51:21.289Z,5.28
2023-05-08T17:53:44.842Z,4.32
2023-05-08T17:56:09.636Z,4.15
2023-05-08T17:58:34.590Z,7.97
2023-05-08T18:00:58.206Z,3.83
2023-05-08T18:03:21.840Z,6.13
2023-05-08T18:05:45.620Z,4.63
2023-05-08T18:08:09.512Z,6.03
2023-05-08T18:10:33.396Z,5.93
2023-05-08T18:12:57.175Z,5.35
2023-05-08T18:15:22.283Z,7.60
2023-05-08T18:17:45.867Z,5.25
2023-05-08T18:20:11.099Z,4.38
2023-05-08T18:22:35.092Z,8.13
2023-05-08T18:25:00.524Z,7.90
2023-05-08T18:27:24.199Z,7.80
2023-05-08T18:29:47.807Z,5.85
2023-05-08T18:32:12.743Z,6.00
2023-05-08T18:34:36.381Z,6.65
2023-05-08T18:36:59.901Z,6.82
2023-05-08T18:39:23.967Z,7.13
2023-05-08T18:41:47.487Z,5.32
2023-05-08T18:44:11.547Z,8.70
2023-05-08T18:46:35.124Z,4.72
2023-05-08T18:49:00.565Z,3.72
2023-05-08T18:51:24.161Z,5.10
2023-05-08T18:53:47.807Z,6.72
2023-05-08T18:56:12.404Z,8.82
2023-05-08T18:58:36.158Z,7.03
2023-05-08T19:01:00.656Z,9.48
2023-05-08T19:03:24.646Z,6.88
2023-05-08T19:05:51.240Z,4.03
2023-05-08T19:08:15.932Z,7.63
2023-05-08T19:10:39.482Z,6.88
2023-05-08T19:13:03.252Z,5.60
2023-05-08T19:15:27.406Z,6.40
2023-05-08T19:17:52.758Z,5.30
2023-05-08T19:20:16.582Z,5.90
2023-05-08T19:22:41.899Z,4.55
2023-05-08T19:25:06.457Z,9.75
2023-05-08T19:27:32.037Z,5.47
2023-05-08T19:29:56.254Z,9.70
2023-05-08T19:32:19.840Z,11.27
2023-05-08T19:34:43.425Z,7.15
2023-05-08T19:37:07.461Z,6.68
2023-05-08T19:39:32.377Z,6.88
2023-05-08T19:41:56.363Z,7.68
2023-05-08T19:44:19.919Z,5.57
2023-05-08T19:46:43.644Z,6.03
2023-05-08T19:49:07.202Z,4.68
2023-05-08T19:51:32.333Z,5.20
2023-05-08T19:53:56.856Z,6.32
2023-05-08T19:56:22.640Z,6.20
2023-05-08T19:58:46.271Z,8.18
2023-05-08T20:01:09.914Z,6.25
2023-05-08T20:03:33.607Z,5.70
2023-05-08T20:05:57.453Z,8.65
2023-05-08T20:08:21.206Z,7.50
2023-05-08T20:10:44.904Z,6.40
2023-05-08T20:13:09.883Z,7.95
2023-05-08T20:15:33.559Z,8.55
2023-05-08T20:17:59.077Z,4.78
2023-05-08T20:20:23.069Z,7.45
2023-05-08T20:22:46.579Z,8.02
2023-05-08T20:25:10.645Z,5.30
2023-05-08T20:27:34.216Z,8.30
2023-05-08T20:30:00.143Z,5.63
2023-05-08T20:32:23.762Z,5.40
2023-05-08T20:34:47.559Z,7.22
2023-05-08T20:37:11.229Z,7.60
2023-05-08T20:39:34.801Z,5.05
2023-05-08T20:41:58.328Z,11.45
2023-05-08T20:44:21.923Z,7.82
2023-05-08T20:46:46.904Z,4.93
2023-05-08T20:49:10.583Z,6.15
2023-05-08T20:51:34.130Z,6.68
2023-05-08T20:53:57.781Z,6.82
2023-05-08T20:56:21.883Z,4.85
2023-05-08T20:58:46.157Z,6.43
2023-05-08T21:01:11.566Z,7.15
2023-05-08T21:03:37.760Z,5.35
2023-05-08T21:06:01.379Z,5.70
2023-05-08T21:08:26.430Z,8.38
2023-05-08T21:10:49.968Z,8.10
2023-05-08T21:13:13.674Z,7.65
2023-05-08T21:15:37.926Z,4.95
2023-05-08T21:18:01.855Z,7.15
2023-05-08T21:20:27.541Z,5.07
2023-05-08T21:22:51.285Z,6.22
2023-05-08T21:25:16.141Z,5.03
2023-05-08T21:27:39.953Z,5.75
2023-05-08T21:30:04.165Z,7.88
2023-05-08T21:32:28.590Z,4.53
2023-05-08T21:34:52.134Z,5.60
2023-05-08T21:37:18.038Z,8.88
2023-05-08T21:39:42.707Z,5.95
2023-05-08T21:42:06.645Z,6.93
2023-05-08T21:44:30.347Z,7.95
2023-05-08T21:46:54.086Z,7.60
2023-05-08T21:49:17.652Z,6.80
2023-05-08T21:51:41.267Z,9.40
2023-05-08T21:54:06.448Z,4.40
2023-05-08T21:56:30.036Z,7.63
2023-05-08T21:58:53.584Z,6.57
2023-05-08T22:01:18.221Z,7.72
2023-05-08T22:03:41.963Z,6.10
2023-05-08T22:06:06.100Z,7.15
2023-05-08T22:08:29.658Z,8.68
2023-05-08T22:10:54.646Z,10.25
2023-05-08T22:13:18.218Z,9.85
2023-05-08T22:15:41.889Z,11.25
2023-05-08T22:18:05.937Z,6.13
2023-05-08T22:20:29.874Z,6.95
2023-05-08T22:22:53.419Z,6.57
2023-05-08T22:25:17.169Z,8.63
2023-05-08T22:27:42.095Z,7.50
2023-05-08T22:30:07.410Z,8.25
2023-05-08T22:32:31.012Z,7.22
2023-05-08T22:34:55.620Z,7.25
2023-05-08T22:37:19.148Z,7.20
2023-05-08T22:39:42.840Z,8.98
2023-05-08T22:42:06.703Z,8.50
2023-05-08T22:44:31.875Z,8.02
2023-05-08T22:46:55.598Z,7.25
2023-05-08T22:49:19.229Z,7.75
2023-05-08T22:51:42.936Z,8.30
2023-05-08T22:54:06.708Z,7.50
2023-05-08T22:56:30.343Z,9.30
2023-05-08T22:58:55.167Z,10.25
2023-05-08T23:01:20.137Z,10.55
2023-05-08T23:03:44.166Z,7.80
2023-05-08T23:06:08.179Z,8.40
2023-05-08T23:08:31.915Z,7.25
2023-05-08T23:10:56.618Z,7.30
2023-05-08T23:13:20.244Z,7.25
2023-05-08T23:15:44.147Z,7.28
2023-05-08T23:18:09.217Z,8.82
2023-05-08T23:20:32.884Z,11.88
2023-05-08T23:22:56.916Z,8.32
2023-05-08T23:25:20.457Z,7.47
2023-05-08T23:27:44.078Z,6.88
2023-05-08T23:30:09.243Z,8.60
2023-05-08T23:32:32.883Z,7.72
2023-05-08T23:34:57.858Z,7.63
2023-05-08T23:37:21.579Z,10.88
2023-05-08T23:39:45.115Z,8.23
2023-05-08T23:42:08.823Z,10.75
2023-05-08T23:44:32.436Z,9.95
2023-05-08T23:46:56.278Z,7.00
2023-05-08T23:49:19.839Z,11.18
2023-05-08T23:51:44.961Z,9.88
2023-05-08T23:54:08.488Z,10.00
2023-05-08T23:56:32.230Z,8.80
2023-05-08T23:58:56.084Z,5.88
